createdAt,value
2019-06-27T00:06:51.188Z,23.65
2019-06-27T00:13:24.670Z,23.55
2019-06-27T00:15:55.168Z,23.45
2019-06-27T00:18:26.019Z,23.40
2019-06-27T00:21:11.731Z,23.41
2019-06-27T00:23:41.688Z,23.36
2019-06-27T00:26:19.953Z,23.34
2019-06-27T00:28:54.452Z,23.36
2019-06-27T00:31:26.634Z,23.33
2019-06-27T00:34:00.176Z,23.30
2019-06-27T00:36:36.589Z,23.28
2019-06-27T00:39:08.907Z,23.22
2019-06-27T00:41:39.583Z,23.19
2019-06-27T00:44:09.848Z,23.20
2019-06-27T00:46:40.501Z,23.11
2019-06-27T00:49:14.818Z,23.07
2019-06-27T00:51:47.759Z,23.00
2019-06-27T00:54:18.761Z,22.97
2019-06-27T00:56:51.419Z,22.92
2019-06-27T00:59:23.340Z,22.93
2019-06-27T01:01:55.382Z,22.85
2019-06-27T01:04:34.711Z,22.79
2019-06-27T01:07:06.162Z,22.76
2019-06-27T01:09:37.156Z,22.75
2019-06-27T01:12:11.394Z,22.72
2019-06-27T01:14:42.250Z,22.67
2019-06-27T01:17:17.639Z,22.70
2019-06-27T01:19:48.255Z,22.64
2019-06-27T01:22:18.526Z,22.57
2019-06-27T01:24:48.884Z,22.54
2019-06-27T01:27:29.632Z,22.50
2019-06-27T01:29:51.586Z,22.51
2019-06-27T01:32:22.095Z,22.51
2019-06-27T01:34:58.250Z,22.55
2019-06-27T01:37:30.407Z,22.56
2019-06-27T01:40:04.313Z,22.56
2019-06-27T01:42:37.234Z,22.51
2019-06-27T01:45:36.837Z,22.48
2019-06-27T01:48:08.389Z,22.58
2019-06-27T01:50:40.001Z,22.52
2019-06-27T01:53:10.725Z,22.49
2019-06-27T01:55:41.187Z,22.42
2019-06-27T01:58:11.484Z,22.35
2019-06-27T02:00:44.008Z,22.36
2019-06-27T02:03:14.433Z,22.43
2019-06-27T02:07:22.364Z,22.54
2019-06-27T02:08:19.524Z,22.49
2019-06-27T02:17:36.274Z,22.34
2019-06-27T02:20:08.346Z,22.25
2019-06-27T02:22:41.533Z,22.19
2019-06-27T02:25:21.811Z,22.20
2019-06-27T02:28:03.152Z,22.17
2019-06-27T02:30:44.108Z,22.14
2019-06-27T02:33:14.704Z,22.11
2019-06-27T02:35:45.380Z,22.15
2019-06-27T02:38:15.789Z,22.07
2019-06-27T02:40:46.256Z,22.12
2019-06-27T02:43:16.698Z,22.05
2019-06-27T02:45:47.805Z,22.04
2019-06-27T02:48:18.294Z,21.97
2019-06-27T02:50:50.477Z,21.96
2019-06-27T02:53:24.089Z,21.93
2019-06-27T02:55:56.910Z,21.88
2019-06-27T02:58:34.831Z,21.87
2019-06-27T03:01:05.032Z,21.86
2019-06-27T03:03:37.514Z,21.84
2019-06-27T03:06:08.252Z,21.86
2019-06-27T03:08:41.011Z,21.85
2019-06-27T03:11:15.006Z,21.81
2019-06-27T03:13:45.291Z,21.79
2019-06-27T03:16:16.063Z,21.76
2019-06-27T03:18:46.336Z,21.71
2019-06-27T03:21:17.084Z,21.71
2019-06-27T03:23:47.844Z,21.67
2019-06-27T03:26:18.245Z,21.64
2019-06-27T03:28:52.697Z,21.63
2019-06-27T03:31:20.576Z,21.65
2019-06-27T03:33:53.985Z,21.68
2019-06-27T03:36:24.365Z,21.68
2019-06-27T03:38:55.317Z,21.68
2019-06-27T03:41:25.678Z,21.64
2019-06-27T03:43:55.897Z,21.60
2019-06-27T03:46:26.210Z,21.61
2019-06-27T03:48:57.380Z,21.56
2019-06-27T03:51:27.678Z,21.57
2019-06-27T03:53:58.180Z,21.56
2019-06-27T03:56:29.664Z,21.60
2019-06-27T03:59:12.504Z,21.58
2019-06-27T04:01:32.179Z,21.58
2019-06-27T04:04:35.177Z,21.61
2019-06-27T04:07:41.073Z,21.65
2019-06-27T04:10:17.550Z,21.71
2019-06-27T04:12:54.696Z,21.73
2019-06-27T04:15:44.929Z,21.70
2019-06-27T04:18:15.795Z,21.73
2019-06-27T04:20:46.526Z,21.72
2019-06-27T04:23:16.778Z,21.76
2019-06-27T04:25:58.149Z,21.77
2019-06-27T04:29:35.132Z,21.78
2019-06-27T04:32:06.266Z,21.85
2019-06-27T04:34:36.790Z,21.84
2019-06-27T04:37:12.170Z,21.89
2019-06-27T04:39:44.581Z,21.94
2019-06-27T04:42:14.892Z,21.95
2019-06-27T04:44:45.191Z,22.01
2019-06-27T04:47:15.480Z,22.10
2019-06-27T04:49:45.761Z,22.21
2019-06-27T04:52:16.019Z,22.23
2019-06-27T04:54:46.378Z,22.28
2019-06-27T04:57:16.886Z,22.32
2019-06-27T04:59:53.548Z,22.39
2019-06-27T05:02:20.370Z,22.44
2019-06-27T05:04:50.767Z,22.49
2019-06-27T05:07:21.322Z,22.51
2019-06-27T05:10:32.760Z,22.58
2019-06-27T05:13:04.288Z,22.63
2019-06-27T05:15:34.926Z,22.72
2019-06-27T05:18:08.534Z,22.81
2019-06-27T05:20:45.122Z,22.88
2019-06-27T05:23:15.727Z,22.95
2019-06-27T05:25:45.900Z,23.09
2019-06-27T05:28:25.486Z,23.20
2019-06-27T05:31:07.679Z,23.29
2019-06-27T05:33:37.875Z,23.40
2019-06-27T05:36:08.286Z,23.44
2019-06-27T05:38:38.425Z,23.47
2019-06-27T05:41:09.473Z,23.52
2019-06-27T05:43:41.936Z,23.63
2019-06-27T05:46:12.109Z,23.74
2019-06-27T05:48:42.404Z,23.90
2019-06-27T05:51:12.667Z,24.07
2019-06-27T05:53:45.604Z,24.15
2019-06-27T05:56:20.902Z,24.19
2019-06-27T05:58:52.439Z,24.29
2019-06-27T06:01:25.640Z,24.33
2019-06-27T06:03:55.907Z,24.41
2019-06-27T06:06:26.028Z,24.47
2019-06-27T06:08:56.242Z,24.60
2019-06-27T06:11:29.435Z,24.70
2019-06-27T06:13:59.590Z,24.69
2019-06-27T06:16:30.628Z,24.70
2019-06-27T06:19:00.851Z,24.71
2019-06-27T06:21:31.048Z,24.83
2019-06-27T06:24:01.302Z,25.06
2019-06-27T06:26:31.522Z,25.11
2019-06-27T06:29:01.721Z,25.05
2019-06-27T06:31:32.033Z,25.10
2019-06-27T06:34:02.122Z,25.18
2019-06-27T06:36:32.229Z,25.25
2019-06-27T06:39:02.693Z,25.33
2019-06-27T06:41:32.881Z,25.42
2019-06-27T06:44:03.183Z,25.59
2019-06-27T06:46:33.948Z,25.68
2019-06-27T06:49:04.650Z,25.66
2019-06-27T06:51:34.799Z,25.61
2019-06-27T06:54:05.403Z,25.60
2019-06-27T06:56:35.521Z,25.68
2019-06-27T06:59:06.258Z,25.71
2019-06-27T07:01:36.535Z,25.83
2019-06-27T07:04:14.697Z,25.67
2019-06-27T07:06:47.321Z,25.70
2019-06-27T07:09:21.084Z,25.79
2019-06-27T07:11:55.020Z,25.92
2019-06-27T07:14:27.126Z,25.90
2019-06-27T07:16:58.160Z,26.03
2019-06-27T07:19:29.018Z,26.00
2019-06-27T07:22:01.849Z,26.05
2019-06-27T07:24:33.049Z,26.11
2019-06-27T07:27:33.100Z,26.09
2019-06-27T07:30:14.018Z,26.10
2019-06-27T07:32:46.405Z,26.20
2019-06-27T07:35:43.230Z,26.11
2019-06-27T07:38:22.479Z,26.15
2019-06-27T07:41:07.699Z,26.26
2019-06-27T07:43:38.813Z,26.31
2019-06-27T07:46:25.409Z,26.37
2019-06-27T07:52:14.063Z,26.75
2019-06-27T08:07:58.588Z,27.69
2019-06-27T08:10:34.368Z,27.90
2019-06-27T08:20:04.428Z,27.74
2019-06-27T08:23:22.470Z,27.97
2019-06-27T08:25:58.071Z,27.98
2019-06-27T08:32:40.584Z,28.09
2019-06-27T08:35:36.342Z,28.45
2019-06-27T08:38:26.493Z,28.51
2019-06-27T08:46:22.489Z,28.39
2019-06-27T08:59:26.606Z,30.58
2019-06-27T09:02:15.771Z,31.21
2019-06-27T09:04:47.088Z,30.97
2019-06-27T09:11:06.833Z,31.85
2019-06-27T09:13:57.853Z,32.83
2019-06-27T09:32:23.905Z,35.32
2019-06-27T09:34:48.027Z,35.42
2019-06-27T09:37:19.754Z,36.01
2019-06-27T09:39:50.355Z,36.35
2019-06-27T09:42:21.417Z,36.30
2019-06-27T09:44:51.957Z,36.21
2019-06-27T09:47:22.199Z,36.69
2019-06-27T09:49:52.317Z,36.35
2019-06-27T09:52:23.104Z,36.22
2019-06-27T09:59:01.165Z,36.85
2019-06-27T10:01:32.330Z,37.02
2019-06-27T10:04:14.202Z,36.95
2019-06-27T10:09:54.785Z,37.81
2019-06-27T10:13:00.367Z,36.56
2019-06-27T10:15:31.187Z,36.72
2019-06-27T10:18:02.930Z,36.96
2019-06-27T10:20:55.188Z,36.11
2019-06-27T10:27:29.808Z,37.78
2019-06-27T10:30:11.037Z,37.64
2019-06-27T10:33:25.980Z,37.13
2019-06-27T10:36:42.957Z,37.31
2019-06-27T10:39:59.840Z,37.75
2019-06-27T10:42:36.830Z,37.95
2019-06-27T10:45:09.334Z,37.82
2019-06-27T10:48:27.721Z,37.23
2019-06-27T10:50:58.196Z,36.82
2019-06-27T10:53:39.491Z,36.55
2019-06-27T10:56:24.511Z,36.05
2019-06-27T10:58:55.353Z,35.67
2019-06-27T11:01:27.035Z,35.10
2019-06-27T11:04:17.982Z,35.16
2019-06-27T11:06:48.217Z,34.45
2019-06-27T11:09:19.555Z,34.37
2019-06-27T11:11:50.603Z,33.30
2019-06-27T11:14:23.423Z,33.22
2019-06-27T11:17:15.989Z,33.42
2019-06-27T11:19:52.453Z,33.05
2019-06-27T11:22:19.698Z,33.29
2019-06-27T11:24:50.338Z,33.44
2019-06-27T11:27:20.603Z,33.36
2019-06-27T11:29:51.684Z,33.75
2019-06-27T11:32:26.162Z,34.23
2019-06-27T11:34:56.418Z,33.91
2019-06-27T11:37:26.670Z,34.06
2019-06-27T11:39:56.855Z,34.91
2019-06-27T11:42:29.822Z,35.94
2019-06-27T11:44:59.796Z,37.33
2019-06-27T11:47:29.956Z,38.33
2019-06-27T11:50:00.436Z,38.87
2019-06-27T11:52:30.790Z,39.79
2019-06-27T11:55:02.080Z,39.69
2019-06-27T11:57:32.305Z,39.31
2019-06-27T12:00:02.521Z,38.12
2019-06-27T12:02:32.718Z,38.19
2019-06-27T12:05:02.916Z,38.32
2019-06-27T12:07:33.930Z,38.89
2019-06-27T12:10:04.250Z,39.83
2019-06-27T12:12:35.731Z,39.85
2019-06-27T12:15:06.592Z,40.84
2019-06-27T12:17:36.730Z,40.24
2019-06-27T12:20:09.067Z,41.07
2019-06-27T12:22:39.701Z,40.98
2019-06-27T12:25:11.861Z,40.58
2019-06-27T12:27:41.993Z,40.40
2019-06-27T12:30:13.961Z,39.63
2019-06-27T12:32:51.971Z,39.93
2019-06-27T12:35:16.207Z,39.25
2019-06-27T12:37:47.727Z,39.99
2019-06-27T12:40:18.127Z,39.45
2019-06-27T12:42:48.756Z,40.47
2019-06-27T12:45:19.994Z,41.17
2019-06-27T12:47:50.621Z,41.21
2019-06-27T12:50:20.961Z,41.49
2019-06-27T12:52:51.469Z,40.46
2019-06-27T12:55:22.051Z,39.44
2019-06-27T12:57:52.298Z,38.31
2019-06-27T13:00:22.549Z,37.93
2019-06-27T13:02:53.844Z,38.07
2019-06-27T13:05:24.094Z,37.81
2019-06-27T13:07:54.240Z,37.47
2019-06-27T13:10:25.824Z,37.31
2019-06-27T13:12:56.727Z,37.40
2019-06-27T13:15:27.251Z,37.61
2019-06-27T13:17:58.403Z,38.09
2019-06-27T13:20:28.640Z,38.37
2019-06-27T13:22:58.810Z,39.78
2019-06-27T13:25:28.949Z,40.46
2019-06-27T13:27:59.519Z,40.21
2019-06-27T13:30:29.731Z,41.63
2019-06-27T13:33:00.202Z,43.03
2019-06-27T13:35:30.387Z,43.48
2019-06-27T13:38:00.610Z,42.84
2019-06-27T13:40:30.733Z,42.57
2019-06-27T13:43:01.089Z,43.06
2019-06-27T13:45:31.786Z,43.43
2019-06-27T13:48:02.041Z,43.60
2019-06-27T13:50:32.334Z,42.92
2019-06-27T13:53:03.849Z,42.87
2019-06-27T13:55:34.046Z,43.01
2019-06-27T13:58:04.225Z,42.80
2019-06-27T14:00:41.948Z,43.44
2019-06-27T14:03:12.089Z,43.49
2019-06-27T14:05:43.529Z,43.25
2019-06-27T14:08:13.801Z,43.61
2019-06-27T14:10:44.045Z,42.65
2019-06-27T14:13:14.258Z,42.97
2019-06-27T14:15:49.117Z,42.10
2019-06-27T14:18:19.588Z,41.74
2019-06-27T14:20:49.833Z,42.30
2019-06-27T14:23:20.292Z,42.54
2019-06-27T14:25:50.424Z,42.54
2019-06-27T14:28:21.065Z,42.92
2019-06-27T14:31:29.623Z,42.23
2019-06-27T14:34:03.422Z,42.77
2019-06-27T14:36:35.200Z,42.30
2019-06-27T14:39:16.920Z,42.68
2019-06-27T14:41:47.987Z,43.05
2019-06-27T14:44:55.481Z,43.50
2019-06-27T14:47:26.127Z,43.12
2019-06-27T14:49:57.261Z,42.99
2019-06-27T14:52:27.951Z,43.33
2019-06-27T14:54:58.268Z,42.36
2019-06-27T14:57:30.524Z,42.32
2019-06-27T15:00:02.116Z,42.00
2019-06-27T15:02:33.815Z,41.66
2019-06-27T15:05:05.183Z,40.49
2019-06-27T15:07:37.806Z,40.88
2019-06-27T15:10:10.078Z,39.77
2019-06-27T15:12:56.440Z,38.39
2019-06-27T15:15:16.177Z,37.99
2019-06-27T15:17:47.297Z,38.74
2019-06-27T15:20:23.014Z,39.48
2019-06-27T15:22:53.366Z,39.75
2019-06-27T15:25:28.213Z,39.24
2019-06-27T15:28:06.295Z,38.87
2019-06-27T15:30:37.461Z,39.17
2019-06-27T15:33:08.468Z,39.13
2019-06-27T15:35:51.754Z,38.06
2019-06-27T15:49:47.191Z,33.80
2019-06-27T15:52:31.860Z,33.58
2019-06-27T16:06:08.762Z,32.72
2019-06-27T16:08:35.792Z,32.73
2019-06-27T16:11:36.984Z,32.56
2019-06-27T16:14:12.522Z,32.41
2019-06-27T16:16:59.958Z,32.29
2019-06-27T16:20:03.708Z,32.30
2019-06-27T16:22:36.044Z,32.27
2019-06-27T16:25:07.793Z,32.36
2019-06-27T16:28:07.260Z,32.31
2019-06-27T16:30:42.171Z,32.03
2019-06-27T16:33:33.660Z,31.90
2019-06-27T16:36:04.577Z,31.92
2019-06-27T16:38:38.811Z,31.68
2019-06-27T16:56:23.695Z,30.93
2019-06-27T16:59:09.873Z,30.93
2019-06-27T17:05:13.129Z,30.69
2019-06-27T17:08:05.234Z,30.70
2019-06-27T17:10:58.547Z,30.58
2019-06-27T17:13:47.519Z,30.52
2019-06-27T17:16:17.969Z,30.40
2019-06-27T17:22:08.196Z,30.17
2019-06-27T17:25:03.776Z,30.05
2019-06-27T17:27:48.385Z,29.97
2019-06-27T17:30:44.866Z,29.94
2019-06-27T17:33:17.471Z,29.77
2019-06-27T17:35:51.061Z,29.66
2019-06-27T17:38:21.684Z,29.56
2019-06-27T17:40:51.962Z,29.48
2019-06-27T17:43:22.407Z,29.39
2019-06-27T17:46:06.073Z,29.36
2019-06-27T17:48:36.758Z,29.32
2019-06-27T17:51:08.097Z,29.24
2019-06-27T17:53:39.013Z,29.25
2019-06-27T17:56:09.187Z,29.10
2019-06-27T17:58:39.523Z,28.98
2019-06-27T18:01:13.077Z,29.00
2019-06-27T18:03:47.433Z,28.99
2019-06-27T18:06:18.521Z,28.91
2019-06-27T18:08:55.842Z,28.82
2019-06-27T18:12:06.103Z,28.76
2019-06-27T18:17:33.092Z,28.62
2019-06-27T18:19:56.412Z,28.63
2019-06-27T18:22:28.554Z,28.45
2019-06-27T18:25:16.221Z,28.34
2019-06-27T18:27:48.439Z,28.15
2019-06-27T18:31:18.245Z,28.03
2019-06-27T18:33:57.838Z,27.98
2019-06-27T18:36:37.650Z,27.81
2019-06-27T18:39:16.267Z,27.81
2019-06-27T18:44:48.447Z,27.68
2019-06-27T18:51:43.747Z,27.53
2019-06-27T18:54:24.055Z,27.41
2019-06-27T18:57:12.612Z,27.26
2019-06-27T18:59:53.930Z,27.19
2019-06-27T19:02:25.447Z,27.33
2019-06-27T19:05:05.315Z,27.34
2019-06-27T19:07:46.785Z,27.30
2019-06-27T19:10:38.467Z,27.16
2019-06-27T19:13:13.344Z,27.11
2019-06-27T19:18:45.951Z,26.89
2019-06-27T19:25:22.961Z,26.74
2019-06-27T19:28:38.988Z,26.60
2019-06-27T19:34:55.636Z,26.23
2019-06-27T19:37:30.822Z,26.17
2019-06-27T19:40:31.324Z,26.05
2019-06-27T19:43:30.891Z,25.95
2019-06-27T19:46:14.735Z,25.87
2019-06-27T19:48:47.385Z,25.77
2019-06-27T19:51:19.006Z,25.66
2019-06-27T19:53:53.635Z,25.51
2019-06-27T19:59:44.455Z,25.32
2019-06-27T20:02:14.828Z,25.20
2019-06-27T20:08:19.406Z,25.15
2019-06-27T20:13:29.697Z,25.09
2019-06-27T20:16:28.451Z,25.03
2019-06-27T20:18:59.894Z,24.86
2019-06-27T20:22:14.244Z,24.74
2019-06-27T20:24:59.821Z,24.67
2019-06-27T20:27:30.474Z,24.69
2019-06-27T20:30:15.431Z,24.58
2019-06-27T20:33:01.925Z,24.41
2019-06-27T20:35:32.318Z,24.29
2019-06-27T20:38:34.408Z,24.25
2019-06-27T20:40:53.740Z,24.12
2019-06-27T20:43:23.958Z,23.82
2019-06-27T20:46:39.039Z,23.83
2019-06-27T20:49:36.961Z,23.72
2019-06-27T20:52:07.090Z,23.62
2019-06-27T20:54:41.414Z,23.44
2019-06-27T20:57:12.067Z,23.42
2019-06-27T20:59:42.515Z,23.23
2019-06-27T21:02:12.869Z,23.18
2019-06-27T21:04:44.242Z,23.06
2019-06-27T21:07:14.537Z,22.91
2019-06-27T21:09:44.879Z,22.80
2019-06-27T21:12:22.886Z,22.67
2019-06-27T21:14:53.443Z,22.67
2019-06-27T21:17:24.465Z,22.59
2019-06-27T21:19:55.027Z,22.39
2019-06-27T21:22:26.538Z,22.25
2019-06-27T21:24:56.941Z,22.23
2019-06-27T21:27:27.218Z,22.08
2019-06-27T21:30:01.379Z,21.90
2019-06-27T21:32:32.237Z,21.79
2019-06-27T21:35:02.555Z,21.72
2019-06-27T21:37:33.043Z,21.57
2019-06-27T21:40:03.448Z,21.49
2019-06-27T21:42:37.111Z,21.40
2019-06-27T21:45:08.768Z,21.31
2019-06-27T21:47:44.414Z,21.20
2019-06-27T21:50:18.321Z,21.09
2019-06-27T21:52:49.792Z,20.97
2019-06-27T21:55:22.118Z,20.84
2019-06-27T21:58:00.124Z,20.96
2019-06-27T22:00:36.011Z,20.81
2019-06-27T22:03:13.167Z,20.67
2019-06-27T22:05:44.046Z,20.65
2019-06-27T22:08:14.256Z,20.45
2019-06-27T22:10:44.795Z,20.41
2019-06-27T22:13:15.206Z,20.31
2019-06-27T22:15:47.942Z,20.38
2019-06-27T22:18:18.539Z,20.30
2019-06-27T22:20:49.935Z,20.15
2019-06-27T22:23:20.065Z,20.06
2019-06-27T22:25:50.547Z,20.03
2019-06-27T22:28:21.013Z,20.04
2019-06-27T22:30:52.587Z,19.97
2019-06-27T22:33:25.742Z,19.75
2019-06-27T22:35:55.899Z,19.74
2019-06-27T22:38:43.391Z,19.58
2019-06-27T22:41:31.345Z,19.51
2019-06-27T22:44:19.166Z,19.46
2019-06-27T22:47:08.003Z,19.43
2019-06-27T22:49:40.805Z,19.36
2019-06-27T22:52:45.117Z,19.26
2019-06-27T22:55:22.915Z,19.27
2019-06-27T22:57:53.986Z,19.22
2019-06-27T23:00:24.339Z,19.06
2019-06-27T23:02:54.421Z,19.06
2019-06-27T23:05:24.517Z,18.99
2019-06-27T23:07:54.613Z,18.91
2019-06-27T23:10:25.029Z,18.78
2019-06-27T23:12:55.416Z,18.77
2019-06-27T23:15:25.500Z,18.69
2019-06-27T23:17:58.021Z,18.64
2019-06-27T23:20:28.161Z,18.46
2019-06-27T23:22:58.313Z,18.51
2019-06-27T23:25:28.809Z,18.48
2019-06-27T23:27:58.955Z,18.33
2019-06-27T23:30:29.349Z,18.26
2019-06-27T23:32:59.459Z,18.20
2019-06-27T23:35:29.874Z,18.19
2019-06-27T23:37:59.982Z,18.05
2019-06-27T23:40:32.937Z,17.99
2019-06-27T23:43:02.817Z,18.02
2019-06-27T23:45:34.057Z,18.00
2019-06-27T23:48:04.294Z,17.95
2019-06-27T23:50:39.752Z,17.80
2019-06-27T23:53:10.081Z,17.74
2019-06-27T23:55:40.228Z,17.66
2019-06-27T23:58:10.326Z,17.59
